Time;durP1;ratioP1;P1;durP2;ratioP2;P2;SDS_P1;SDS_P2;PMS_P1;PMS_P2;Temp;Humidity;BMP_temperature;BMP_pressure;BME280_temperature;BME280_humidity;BME280_pressure;Samples;Min_cycle;Max_cycle;Signal;HPM_P1;HPM_P2
2022/04/06 00:00:20;;;;;;;27.30;12.95;;;9.40;99.90;;;;;;4990194;28;20033;-83
2022/04/06 00:02:46;;;;;;;15.65;10.18;;;9.50;99.90;;;;;;5006919;28;20030;-82
2022/04/06 00:05:12;;;;;;;20.23;9.45;;;9.40;99.90;;;;;;5006571;28;20034;-83
2022/04/06 00:07:39;;;;;;;19.05;9.15;;;9.40;99.90;;;;;;5008389;28;20076;-83
2022/04/06 00:10:05;;;;;;;15.23;8.48;;;9.40;99.90;;;;;;5009251;28;20498;-83
2022/04/06 00:12:31;;;;;;;20.98;9.35;;;9.30;99.90;;;;;;5006606;28;20455;-83
2022/04/06 00:14:57;;;;;;;14.23;7.32;;;9.40;99.90;;;;;;5004446;28;20570;-82
2022/04/06 00:17:23;;;;;;;13.75;6.93;;;9.30;99.90;;;;;;5015357;28;20121;-83
2022/04/06 00:19:48;;;;;;;10.82;5.47;;;9.30;99.90;;;;;;5004625;28;20026;-84
2022/04/06 00:22:14;;;;;;;16.80;6.72;;;9.30;99.90;;;;;;5005839;28;20378;-82
2022/04/06 00:24:40;;;;;;;13.98;6.95;;;9.30;99.90;;;;;;5011305;28;20029;-83
2022/04/06 00:27:05;;;;;;;12.10;6.57;;;9.30;99.90;;;;;;5005745;28;20033;-83
2022/04/06 00:29:31;;;;;;;15.52;6.03;;;9.40;99.90;;;;;;4992723;28;20109;-84
2022/04/06 00:31:57;;;;;;;16.60;7.22;;;9.30;99.90;;;;;;4991171;28;20033;-83
2022/04/06 00:35:28;;;;;;;15.23;6.05;;;9.30;99.90;;;;;;4989611;28;20029;-83
2022/04/06 00:37:08;;;;;;;12.45;5.70;;;9.20;99.90;;;;;;5023474;28;20505;-83
2022/04/06 00:39:34;;;;;;;9.15;5.43;;;9.30;99.90;;;;;;5016639;28;20136;-82
2022/04/06 00:42:00;;;;;;;15.85;5.57;;;9.20;99.90;;;;;;5009595;28;20042;-84
2022/04/06 00:44:28;;;;;;;16.45;7.15;;;9.30;99.90;;;;;;5009122;28;20034;-83
2022/04/06 00:46:53;;;;;;;13.27;6.57;;;9.30;99.90;;;;;;4991391;28;20025;-83
2022/04/06 00:49:19;;;;;;;17.10;6.18;;;9.20;99.90;;;;;;5008550;28;20099;-83
2022/04/06 00:51:47;;;;;;;8.68;4.63;;;9.20;99.90;;;;;;5027125;28;20049;-84
2022/04/06 00:54:21;;;;;;;13.00;6.43;;;9.20;99.90;;;;;;5008402;28;20176;-83
2022/04/06 00:56:47;;;;;;;12.27;5.63;;;9.20;99.90;;;;;;4993436;28;20038;-83
2022/04/06 00:59:15;;;;;;;12.43;5.38;;;9.20;99.90;;;;;;5028776;28;20466;-84
2022/04/06 01:01:41;;;;;;;13.02;5.53;;;9.20;99.90;;;;;;5013327;28;20033;-83
2022/04/06 01:04:06;;;;;;;14.70;7.70;;;9.20;99.90;;;;;;5010008;28;20454;-83
2022/04/06 01:06:32;;;;;;;11.98;7.13;;;9.20;99.90;;;;;;4994446;28;20028;-83
2022/04/06 01:08:58;;;;;;;13.50;6.15;;;9.20;99.90;;;;;;5010661;28;20033;-84
2022/04/06 01:11:24;;;;;;;13.82;6.70;;;9.20;99.90;;;;;;4991791;28;20105;-82
2022/04/06 01:13:51;;;;;;;12.45;6.45;;;9.20;99.90;;;;;;5016395;28;20030;-81
2022/04/06 01:16:18;;;;;;;17.15;6.85;;;9.20;99.90;;;;;;5005392;28;20038;-83
2022/04/06 01:18:43;;;;;;;14.65;7.15;;;9.20;99.90;;;;;;5013614;28;20125;-83
2022/04/06 01:21:11;;;;;;;14.70;8.07;;;9.20;99.90;;;;;;4994439;28;20192;-82
2022/04/06 01:23:39;;;;;;;14.20;6.93;;;9.20;99.90;;;;;;5022605;28;20028;-82
2022/04/06 01:26:05;;;;;;;11.30;6.25;;;9.20;99.90;;;;;;5006709;28;20038;-82
2022/04/06 01:28:31;;;;;;;19.25;8.13;;;9.20;99.90;;;;;;5023788;28;20032;-80
2022/04/06 01:30:56;;;;;;;15.98;6.78;;;9.20;99.90;;;;;;5010173;28;20504;-84
2022/04/06 01:33:22;;;;;;;7.53;4.80;;;9.20;99.90;;;;;;5028486;28;20025;-82
2022/04/06 01:35:49;;;;;;;13.18;5.72;;;9.10;99.90;;;;;;5013119;28;20079;-82
2022/04/06 01:38:15;;;;;;;14.82;6.38;;;9.10;99.90;;;;;;5010640;28;20083;-83
2022/04/06 01:40:40;;;;;;;17.33;6.05;;;9.20;99.90;;;;;;4991127;28;20021;-83
2022/04/06 01:43:06;;;;;;;9.82;4.95;;;9.20;99.90;;;;;;5028906;28;20081;-82
2022/04/06 01:45:32;;;;;;;9.20;5.32;;;9.20;99.90;;;;;;5012866;28;20018;-82
2022/04/06 01:47:57;;;;;;;11.98;4.45;;;9.20;99.90;;;;;;5027540;28;20103;-81
2022/04/06 01:53:07;;;;;;;16.05;6.82;;;9.10;99.90;;;;;;5006362;28;20060;-83
2022/04/06 01:55:33;;;;;;;13.52;6.20;;;9.20;99.90;;;;;;5012639;28;20033;-82
2022/04/06 01:57:59;;;;;;;12.13;5.53;;;9.10;99.90;;;;;;4995098;28;20120;-82
2022/04/06 02:00:26;;;;;;;13.98;5.40;;;9.10;99.90;;;;;;5022474;28;20036;-82
2022/04/06 02:02:53;;;;;;;13.57;6.07;;;9.10;99.90;;;;;;5012688;28;20494;-82
2022/04/06 02:05:21;;;;;;;14.05;5.15;;;9.10;99.90;;;;;;5010962;28;20029;-82
2022/04/06 02:07:47;;;;;;;16.77;5.97;;;9.10;99.90;;;;;;5009469;28;20025;-84
2022/04/06 02:10:13;;;;;;;13.48;5.25;;;9.10;99.90;;;;;;5011129;28;20060;-82
2022/04/06 02:12:39;;;;;;;15.15;5.53;;;9.10;99.90;;;;;;5021035;28;20033;-83
2022/04/06 02:15:07;;;;;;;15.32;6.38;;;9.10;99.90;;;;;;5008550;28;20057;-82
2022/04/06 02:17:33;;;;;;;15.85;5.55;;;9.10;99.90;;;;;;4991494;28;20371;-83
2022/04/06 02:19:58;;;;;;;11.35;4.63;;;9.20;99.90;;;;;;5008929;28;20037;-82
2022/04/06 02:22:24;;;;;;;9.48;3.85;;;9.10;99.90;;;;;;5003408;28;20028;-82
2022/04/06 02:24:50;;;;;;;12.63;4.05;;;9.10;99.90;;;;;;5024905;28;20030;-83
2022/04/06 02:27:16;;;;;;;7.30;3.67;;;9.10;99.90;;;;;;5012054;28;20084;-82
2022/04/06 02:29:41;;;;;;;12.40;4.28;;;9.10;99.90;;;;;;5008907;28;20478;-82
2022/04/06 02:32:08;;;;;;;15.65;5.10;;;9.10;99.90;;;;;;5012567;28;20500;-83
2022/04/06 02:34:34;;;;;;;13.10;4.63;;;9.10;99.90;;;;;;5011465;28;20033;-83
2022/04/06 02:37:00;;;;;;;7.50;3.13;;;9.10;99.90;;;;;;5004948;28;20022;-84
2022/04/06 02:39:26;;;;;;;11.18;3.90;;;9.00;99.90;;;;;;5023779;28;20100;-84
2022/04/06 02:41:52;;;;;;;10.88;4.20;;;9.00;99.90;;;;;;5026047;28;20171;-82
2022/04/06 02:44:18;;;;;;;14.02;4.43;;;9.00;99.90;;;;;;5006970;28;20022;-83
2022/04/06 02:46:45;;;;;;;12.25;4.40;;;9.10;99.90;;;;;;5011484;28;20424;-82
2022/04/06 02:49:11;;;;;;;10.77;3.63;;;9.00;99.90;;;;;;5008414;28;20033;-83
2022/04/06 02:51:36;;;;;;;9.60;3.40;;;9.00;99.90;;;;;;5011199;28;20159;-82
2022/04/06 02:54:02;;;;;;;9.45;3.63;;;9.00;99.90;;;;;;5006855;28;20367;-83
2022/04/06 02:56:28;;;;;;;10.55;3.13;;;9.00;99.90;;;;;;5011142;28;20132;-83
2022/04/06 02:58:54;;;;;;;10.18;2.67;;;9.00;99.90;;;;;;5008356;28;20458;-81
2022/04/06 03:01:20;;;;;;;10.30;3.30;;;9.00;99.90;;;;;;5007020;28;20087;-82
2022/04/06 03:03:45;;;;;;;11.63;3.05;;;9.00;99.90;;;;;;5012192;28;20032;-82
2022/04/06 03:06:11;;;;;;;7.82;2.75;;;9.00;99.90;;;;;;4990241;28;20455;-82
2022/04/06 03:08:36;;;;;;;13.73;3.72;;;8.90;99.90;;;;;;5020844;28;20367;-82
2022/04/06 03:11:03;;;;;;;13.80;4.05;;;9.00;99.90;;;;;;5004650;28;20081;-82
2022/04/06 03:13:28;;;;;;;13.07;4.63;;;9.00;99.90;;;;;;5008401;28;20115;-82
2022/04/06 03:15:54;;;;;;;12.48;3.13;;;9.00;99.90;;;;;;5008589;28;20053;-84
2022/04/06 03:18:20;;;;;;;9.55;3.33;;;9.00;99.90;;;;;;4988513;28;20389;-82
2022/04/06 03:20:46;;;;;;;12.93;4.13;;;8.90;99.90;;;;;;4997232;28;20036;-83
2022/04/06 03:23:12;;;;;;;11.10;3.33;;;8.90;99.90;;;;;;5006905;28;20029;-83
2022/04/06 03:25:37;;;;;;;7.68;1.90;;;8.90;99.90;;;;;;5023524;28;20028;-83
2022/04/06 03:28:03;;;;;;;8.75;2.17;;;8.90;99.90;;;;;;5023373;28;20112;-83
2022/04/06 03:30:30;;;;;;;7.70;2.40;;;8.90;99.90;;;;;;4989958;28;20042;-84
2022/04/06 03:32:56;;;;;;;8.40;2.70;;;8.90;99.90;;;;;;5007243;28;20033;-82
2022/04/06 03:35:22;;;;;;;8.75;2.50;;;8.90;99.90;;;;;;4989706;28;20493;-84
2022/04/06 03:37:47;;;;;;;10.98;2.13;;;8.90;99.90;;;;;;5016855;28;20026;-83
2022/04/06 03:40:13;;;;;;;8.65;2.20;;;8.90;99.90;;;;;;5010570;28;20041;-84
2022/04/06 03:42:39;;;;;;;7.43;2.13;;;8.90;99.90;;;;;;5008559;28;20029;-84
2022/04/06 03:45:05;;;;;;;10.52;2.80;;;8.80;99.90;;;;;;4987901;28;20034;-83
2022/04/06 03:47:32;;;;;;;8.50;1.63;;;8.90;99.90;;;;;;5023573;28;20038;-84
2022/04/06 03:50:02;;;;;;;8.50;1.60;;;8.80;99.90;;;;;;4986823;28;20037;-84
2022/04/06 03:52:28;;;;;;;4.10;1.20;;;8.80;99.90;;;;;;5007235;28;20084;-84
2022/04/06 03:54:54;;;;;;;5.03;1.77;;;8.90;99.90;;;;;;5002192;28;20069;-84
2022/04/06 03:57:20;;;;;;;6.28;1.73;;;8.80;99.90;;;;;;4993015;28;20053;-83
2022/04/06 03:59:45;;;;;;;6.60;1.30;;;8.80;99.90;;;;;;5008176;28;20478;-82
2022/04/06 04:02:11;;;;;;;9.05;1.63;;;8.70;99.90;;;;;;5008130;28;20026;-84
2022/04/06 04:04:37;;;;;;;6.13;1.45;;;8.80;99.90;;;;;;5010360;28;20033;-84
2022/04/06 04:07:03;;;;;;;10.48;2.15;;;8.80;99.90;;;;;;4997625;28;20025;-83
2022/04/06 04:09:29;;;;;;;4.85;1.30;;;8.70;99.90;;;;;;5006942;28;20595;-83
2022/04/06 04:11:56;;;;;;;7.57;2.35;;;8.70;99.90;;;;;;5019582;28;20026;-83
2022/04/06 04:14:23;;;;;;;5.90;1.83;;;8.70;99.90;;;;;;5011018;28;20053;-81
2022/04/06 04:16:49;;;;;;;4.75;0.88;;;8.60;99.90;;;;;;5025185;28;20521;-83
2022/04/06 04:19:16;;;;;;;5.07;0.80;;;8.60;99.90;;;;;;5023533;28;20343;-83
2022/04/06 04:21:42;;;;;;;4.18;0.98;;;8.60;99.90;;;;;;5008907;28;20312;-82
2022/04/06 04:24:10;;;;;;;6.55;1.00;;;8.60;99.90;;;;;;5008432;28;20041;-83
2022/04/06 04:26:38;;;;;;;4.57;0.80;;;8.60;99.90;;;;;;5009913;28;20030;-82
2022/04/06 04:29:04;;;;;;;5.80;0.75;;;8.60;99.90;;;;;;5028044;28;20100;-85
2022/04/06 04:31:31;;;;;;;6.53;1.40;;;8.60;99.90;;;;;;4992798;28;20033;-84
2022/04/06 04:33:57;;;;;;;7.00;0.80;;;8.60;99.90;;;;;;4995146;28;20025;-82
2022/04/06 04:36:23;;;;;;;4.13;0.90;;;8.60;99.90;;;;;;4994460;28;20037;-83
2022/04/06 04:38:49;;;;;;;8.32;1.15;;;8.60;99.90;;;;;;5014827;28;20026;-84
2022/04/06 04:41:14;;;;;;;4.68;0.98;;;8.60;99.90;;;;;;5011341;28;20496;-83
2022/04/06 04:43:40;;;;;;;7.10;1.70;;;8.60;99.90;;;;;;5030968;28;20108;-82
2022/04/06 04:46:07;;;;;;;4.72;0.95;;;8.60;99.90;;;;;;4998460;28;20189;-83
2022/04/06 04:48:33;;;;;;;4.05;0.80;;;8.60;99.90;;;;;;5010341;28;20507;-84
2022/04/06 04:50:59;;;;;;;5.38;0.70;;;8.60;99.90;;;;;;5017513;28;20042;-83
2022/04/06 04:53:26;;;;;;;5.25;1.30;;;8.60;99.90;;;;;;5003974;28;20123;-83
2022/04/06 04:55:53;;;;;;;3.25;0.70;;;8.60;99.90;;;;;;5009677;28;20038;-83
2022/04/06 04:58:19;;;;;;;6.93;0.75;;;8.50;99.90;;;;;;4986550;28;20022;-83
2022/04/06 05:00:46;;;;;;;4.47;0.63;;;8.50;99.90;;;;;;4986687;28;20030;-81
2022/04/06 05:03:12;;;;;;;8.75;1.60;;;8.50;99.90;;;;;;4983297;28;20090;-83
2022/04/06 05:05:39;;;;;;;7.90;1.50;;;8.60;99.90;;;;;;5002505;28;20061;-84
2022/04/06 05:08:06;;;;;;;6.60;1.23;;;8.60;99.90;;;;;;5000105;28;20041;-84
2022/04/06 05:10:32;;;;;;;6.80;0.88;;;8.60;99.90;;;;;;5002100;28;20054;-82
2022/04/06 05:12:58;;;;;;;4.93;0.90;;;8.50;99.90;;;;;;5009451;28;20022;-83
2022/04/06 05:15:23;;;;;;;4.13;0.70;;;8.60;99.90;;;;;;4993329;28;20402;-82
2022/04/06 05:17:49;;;;;;;5.93;0.95;;;8.50;99.90;;;;;;4993846;28;20309;-82
2022/04/06 05:20:15;;;;;;;6.35;1.02;;;8.60;99.90;;;;;;4991178;28;20482;-85
2022/04/06 05:22:41;;;;;;;4.47;0.60;;;8.60;99.90;;;;;;5003404;28;20049;-84
2022/04/06 05:25:07;;;;;;;3.85;0.75;;;8.60;99.90;;;;;;5004334;28;20403;-84
2022/04/06 05:27:51;;;;;;;4.30;0.68;;;8.60;99.90;;;;;;4993495;28;20057;-85
2022/04/06 05:30:18;;;;;;;5.57;0.80;;;8.60;99.90;;;;;;5004425;28;20038;-84
2022/04/06 05:32:45;;;;;;;4.47;0.68;;;8.60;99.90;;;;;;5003658;28;20502;-83
2022/04/06 05:35:11;;;;;;;6.78;1.08;;;8.60;99.90;;;;;;5005642;28;20505;-83
2022/04/06 05:37:42;;;;;;;6.57;0.90;;;8.50;99.90;;;;;;5016086;28;20018;-85
2022/04/06 05:40:09;;;;;;;3.83;0.50;;;8.60;99.90;;;;;;5007207;28;20402;-84
2022/04/06 05:42:35;;;;;;;6.47;1.50;;;8.50;99.90;;;;;;5003955;28;20036;-83
2022/04/06 05:45:02;;;;;;;6.07;0.60;;;8.60;99.90;;;;;;5003996;28;20034;-83
2022/04/06 05:47:27;;;;;;;7.50;1.30;;;8.60;99.90;;;;;;4986941;28;20034;-82
2022/04/06 05:49:53;;;;;;;4.43;0.60;;;8.60;99.90;;;;;;5013616;28;20057;-85
2022/04/06 05:52:19;;;;;;;5.97;0.77;;;8.60;99.90;;;;;;5002852;28;20037;-85
2022/04/06 05:54:44;;;;;;;6.10;0.75;;;8.60;99.90;;;;;;5004956;28;20467;-84
2022/04/06 05:57:10;;;;;;;6.30;0.70;;;8.60;99.90;;;;;;5002142;28;20026;-84
2022/04/06 05:59:36;;;;;;;6.55;0.75;;;8.60;99.90;;;;;;5007521;28;20065;-85
2022/04/06 06:02:05;;;;;;;8.77;1.13;;;8.70;99.90;;;;;;5015925;28;20028;-84
2022/04/06 06:04:33;;;;;;;6.03;1.02;;;8.70;99.90;;;;;;5005383;28;20120;-83
2022/04/06 06:06:59;;;;;;;7.32;1.13;;;8.70;99.90;;;;;;5006115;28;20109;-86
2022/04/06 06:09:24;;;;;;;6.10;1.10;;;8.70;99.90;;;;;;4989948;28;20558;-83
2022/04/06 06:11:50;;;;;;;7.45;1.48;;;8.70;99.90;;;;;;5006545;28;20026;-83
2022/04/06 06:14:15;;;;;;;6.53;1.50;;;8.70;99.90;;;;;;5006262;28;20552;-83
2022/04/06 06:16:41;;;;;;;8.50;1.48;;;8.70;99.90;;;;;;5002602;28;20030;-85
2022/04/06 06:19:06;;;;;;;6.05;1.45;;;8.80;99.90;;;;;;5004244;28;20034;-84
2022/04/06 06:21:32;;;;;;;8.27;1.50;;;8.80;99.90;;;;;;5005492;28;20450;-82
2022/04/06 06:24:05;;;;;;;9.55;2.47;;;8.80;99.90;;;;;;5005880;28;20057;-81
2022/04/06 06:26:35;;;;;;;8.02;2.92;;;8.80;99.90;;;;;;4995079;28;20038;-83
2022/04/06 06:29:02;;;;;;;7.75;2.35;;;8.90;99.90;;;;;;4991221;28;20030;-83
2022/04/06 06:31:30;;;;;;;6.55;1.95;;;8.90;99.90;;;;;;5005487;28;20045;-83
2022/04/06 06:33:57;;;;;;;10.60;2.53;;;8.90;99.90;;;;;;5015877;28;20038;-83
2022/04/06 06:36:23;;;;;;;7.68;1.88;;;8.90;99.90;;;;;;5005624;28;20037;-82
2022/04/06 06:38:50;;;;;;;7.93;1.98;;;9.00;99.90;;;;;;5005051;28;20026;-82
2022/04/06 06:41:15;;;;;;;11.38;3.13;;;9.00;99.90;;;;;;5004904;28;20205;-83
2022/04/06 06:43:41;;;;;;;9.77;3.03;;;9.00;99.90;;;;;;5015541;28;20272;-82
2022/04/06 06:46:08;;;;;;;6.97;2.63;;;9.10;99.90;;;;;;5011876;28;20453;-82
2022/04/06 06:48:34;;;;;;;12.40;3.35;;;9.10;99.90;;;;;;5006831;28;20022;-82
2022/04/06 06:50:59;;;;;;;8.18;2.72;;;9.10;99.90;;;;;;4989214;28;20065;-84
2022/04/06 06:53:25;;;;;;;6.90;2.28;;;9.20;99.90;;;;;;5001803;28;20046;-84
2022/04/06 06:55:51;;;;;;;10.55;2.92;;;9.20;99.90;;;;;;4989982;28;20403;-82
2022/04/06 06:58:16;;;;;;;4.35;1.65;;;9.20;99.90;;;;;;4994344;28;20041;-83
2022/04/06 07:00:42;;;;;;;8.70;2.22;;;9.20;99.90;;;;;;5011367;28;22163;-83
2022/04/06 07:03:07;;;;;;;9.02;2.05;;;9.20;99.90;;;;;;4992886;28;20026;-84
2022/04/06 07:05:33;;;;;;;9.40;2.13;;;9.30;99.90;;;;;;5005348;28;20026;-82
2022/04/06 07:08:02;;;;;;;6.15;1.85;;;9.30;99.90;;;;;;5004998;28;20112;-83
2022/04/06 07:10:29;;;;;;;7.97;1.65;;;9.30;99.90;;;;;;4998664;28;20511;-82
2022/04/06 07:12:55;;;;;;;9.27;1.70;;;9.30;99.90;;;;;;5001875;28;20033;-84
2022/04/06 07:15:22;;;;;;;10.10;1.80;;;9.30;99.90;;;;;;5004061;28;20374;-85
2022/04/06 07:17:52;;;;;;;6.85;1.70;;;9.30;99.90;;;;;;5005334;28;20403;-85
2022/04/06 07:20:18;;;;;;;7.13;1.55;;;9.40;99.90;;;;;;4994257;28;20491;-82
2022/04/06 07:22:43;;;;;;;7.32;1.30;;;9.40;99.90;;;;;;5001817;28;20216;-84
2022/04/06 07:25:09;;;;;;;5.72;1.00;;;9.40;99.90;;;;;;4996904;28;20045;-85
2022/04/06 07:27:36;;;;;;;8.20;1.73;;;9.40;99.90;;;;;;4999128;28;20022;-84
2022/04/06 07:30:04;;;;;;;7.03;1.00;;;9.40;99.90;;;;;;5006389;28;20120;-83
2022/04/06 07:32:31;;;;;;;7.10;0.70;;;9.50;99.90;;;;;;4988508;28;20480;-83
2022/04/06 07:34:57;;;;;;;5.53;0.75;;;9.60;99.90;;;;;;4997326;28;20045;-82
2022/04/06 07:37:22;;;;;;;2.58;0.60;;;9.50;99.90;;;;;;4987754;28;20027;-84
2022/04/06 07:39:48;;;;;;;4.25;0.60;;;9.60;99.90;;;;;;5007552;28;20041;-84
2022/04/06 07:42:13;;;;;;;7.57;0.70;;;9.60;99.90;;;;;;4999720;28;20117;-83
2022/04/06 07:44:39;;;;;;;1.80;0.60;;;9.60;99.90;;;;;;5003594;28;20391;-82
2022/04/06 07:47:05;;;;;;;3.90;0.60;;;9.70;99.90;;;;;;5002704;28;20067;-84
2022/04/06 07:49:31;;;;;;;6.15;1.17;;;9.60;99.90;;;;;;5007210;28;20050;-85
2022/04/06 07:51:56;;;;;;;5.07;0.70;;;9.70;99.90;;;;;;5007680;28;20056;-84
2022/04/06 07:54:22;;;;;;;2.28;0.52;;;9.60;99.90;;;;;;4997562;28;20363;-86
2022/04/06 07:56:48;;;;;;;2.90;0.82;;;9.70;99.90;;;;;;5020828;28;20144;-84
2022/04/06 07:59:13;;;;;;;4.47;0.60;;;9.70;99.90;;;;;;5026468;28;20025;-85
2022/04/06 08:01:39;;;;;;;3.90;0.60;;;9.70;99.90;;;;;;5025251;28;20026;-84
2022/04/06 08:04:04;;;;;;;4.50;0.60;;;9.80;99.90;;;;;;5014966;28;20028;-86
2022/04/06 08:06:30;;;;;;;3.50;0.40;;;9.80;99.90;;;;;;5022035;28;20398;-84
2022/04/06 08:08:56;;;;;;;4.75;0.60;;;9.80;99.90;;;;;;5021077;28;20031;-83
2022/04/06 08:11:21;;;;;;;2.08;0.52;;;9.80;99.90;;;;;;5021512;28;20386;-85
2022/04/06 08:13:48;;;;;;;3.80;0.65;;;9.80;99.90;;;;;;5014162;28;20049;-84
2022/04/06 08:16:13;;;;;;;3.13;0.40;;;9.80;99.90;;;;;;5008864;28;20091;-84
2022/04/06 08:18:39;;;;;;;2.90;0.50;;;9.80;99.90;;;;;;5009301;28;20026;-85
2022/04/06 08:21:05;;;;;;;4.55;0.40;;;9.90;99.90;;;;;;5009661;28;20190;-83
2022/04/06 08:23:31;;;;;;;3.38;0.40;;;10.00;99.90;;;;;;5012462;28;20134;-81
2022/04/06 08:25:58;;;;;;;1.90;0.28;;;10.10;99.90;;;;;;4993721;28;20037;-85
2022/04/06 08:28:23;;;;;;;3.42;0.47;;;10.20;99.90;;;;;;5021505;28;20083;-82
2022/04/06 08:30:49;;;;;;;3.38;0.40;;;10.10;99.90;;;;;;5010091;28;20041;-82
2022/04/06 08:33:15;;;;;;;1.40;0.38;;;10.10;99.90;;;;;;5012363;28;20037;-83
2022/04/06 08:35:41;;;;;;;2.30;0.40;;;10.20;99.90;;;;;;5006532;28;20045;-82
2022/04/06 08:38:11;;;;;;;4.03;0.40;;;10.20;99.90;;;;;;5014074;28;20038;-83
2022/04/06 08:40:37;;;;;;;3.75;0.45;;;10.30;99.90;;;;;;5022302;28;20044;-83
2022/04/06 08:43:05;;;;;;;1.98;0.40;;;10.30;99.90;;;;;;5009320;28;20041;-82
2022/04/06 08:45:33;;;;;;;4.32;0.60;;;10.30;99.90;;;;;;5008578;28;20398;-83
2022/04/06 08:48:01;;;;;;;2.90;0.70;;;10.20;99.90;;;;;;5022891;28;20021;-84
2022/04/06 08:50:30;;;;;;;3.05;0.60;;;10.20;99.90;;;;;;5008800;28;20123;-83
2022/04/06 08:52:57;;;;;;;2.03;0.47;;;10.20;99.90;;;;;;5017179;28;20062;-84
2022/04/06 08:55:23;;;;;;;4.55;0.50;;;10.30;99.90;;;;;;5004226;28;20656;-83
2022/04/06 08:57:49;;;;;;;5.25;0.63;;;10.30;99.90;;;;;;5014377;28;20025;-83
2022/04/06 09:00:18;;;;;;;4.50;0.68;;;10.30;99.90;;;;;;5027231;28;20040;-83
2022/04/06 09:02:44;;;;;;;3.47;0.77;;;10.30;99.90;;;;;;5012290;28;20056;-84
2022/04/06 09:05:11;;;;;;;4.05;1.33;;;10.40;99.90;;;;;;5027801;28;20037;-84
2022/04/06 09:07:38;;;;;;;6.13;0.75;;;10.40;99.90;;;;;;5010625;28;20038;-84
2022/04/06 09:10:05;;;;;;;4.28;1.17;;;10.40;99.90;;;;;;4993546;28;20063;-83
2022/04/06 09:12:30;;;;;;;5.95;0.90;;;10.30;99.90;;;;;;5003327;28;20326;-83
2022/04/06 09:15:06;;;;;;;3.53;1.10;;;10.30;99.90;;;;;;4990205;28;20057;-82
2022/04/06 09:17:46;;;;;;;8.13;2.38;;;10.30;99.90;;;;;;5002105;28;20052;-83
2022/04/06 09:20:16;;;;;;;;;;;10.10;99.90;;;;;;5002291;28;20048;-83
2022/04/06 09:22:44;;;;;;;6.00;1.52;;;10.10;99.90;;;;;;5016019;28;20160;-82
2022/04/06 09:25:10;;;;;;;4.25;1.25;;;10.10;99.90;;;;;;5018314;28;20025;-85
2022/04/06 09:27:38;;;;;;;7.32;1.50;;;10.00;99.90;;;;;;4985708;28;20029;-84
2022/04/06 09:30:05;;;;;;;10.05;2.47;;;10.10;99.90;;;;;;5014666;28;20041;-84
2022/04/06 09:32:31;;;;;;;3.70;1.08;;;10.10;99.90;;;;;;4994048;28;20041;-83
2022/04/06 09:34:59;;;;;;;8.40;2.17;;;10.10;99.90;;;;;;5007103;28;20037;-84
2022/04/06 09:37:31;;;;;;;6.88;2.00;;;10.10;99.90;;;;;;4984662;28;20029;-84
2022/04/06 09:40:07;;;;;;;4.45;1.40;;;10.10;99.90;;;;;;5019341;28;20183;-83
2022/04/06 09:42:33;;;;;;;6.20;2.00;;;10.00;99.90;;;;;;5001180;28;20033;-84
2022/04/06 09:48:00;;;;;;;3.90;1.85;;;10.00;99.90;;;;;;5015980;28;20124;-85
2022/04/06 09:50:27;;;;;;;4.80;1.88;;;9.90;99.90;;;;;;4998180;28;20045;-82
2022/04/06 09:53:00;;;;;;;3.85;1.73;;;9.80;99.90;;;;;;5006340;28;20052;-83
2022/04/06 09:55:25;;;;;;;8.13;2.60;;;9.80;99.90;;;;;;4983107;28;20052;-83
2022/04/06 09:57:56;;;;;;;4.47;2.22;;;9.80;99.90;;;;;;5018294;28;20067;-82
2022/04/06 10:00:30;;;;;;;6.43;2.65;;;9.80;99.90;;;;;;5002487;28;20057;-82
2022/04/06 10:03:07;;;;;;;5.53;2.10;;;9.80;99.90;;;;;;5001016;28;20036;-83
2022/04/06 10:05:35;;;;;;;5.60;2.17;;;9.70;99.90;;;;;;4998709;28;20022;-84
2022/04/06 10:08:10;;;;;;;4.20;1.90;;;9.60;99.90;;;;;;4981845;28;20477;-83
2022/04/06 10:10:40;;;;;;;3.20;1.48;;;9.60;99.90;;;;;;4980269;28;20041;-83
2022/04/06 10:13:07;;;;;;;2.90;1.15;;;9.70;99.90;;;;;;5000962;28;20420;-82
2022/04/06 10:15:35;;;;;;;4.93;1.42;;;9.80;99.90;;;;;;5015753;28;20038;-82
2022/04/06 10:18:03;;;;;;;5.55;1.75;;;9.80;99.90;;;;;;5002492;28;20026;-83
2022/04/06 10:20:44;;;;;;;3.28;0.70;;;9.70;99.90;;;;;;4996569;28;21092;-82
2022/04/06 10:23:18;;;;;;;4.43;1.08;;;9.70;99.90;;;;;;5014325;28;20121;-84
2022/04/06 10:25:56;;;;;;;6.88;2.15;;;9.70;99.90;;;;;;4999379;28;20450;-84
2022/04/06 10:28:22;;;;;;;7.00;1.92;;;9.60;99.90;;;;;;5015935;28;20116;-83
2022/04/06 10:31:13;;;;;;;4.15;2.25;;;9.70;99.90;;;;;;4994086;28;20042;-85
2022/04/06 10:33:39;;;;;;;5.82;1.58;;;9.80;99.90;;;;;;5004079;28;20037;-83
2022/04/06 10:36:18;;;;;;;4.85;1.10;;;9.80;99.90;;;;;;4997971;28;20478;-81
2022/04/06 10:39:06;;;;;;;3.97;1.83;;;9.80;99.90;;;;;;4982196;28;20071;-83
2022/04/06 10:41:39;;;;;;;3.17;1.40;;;9.70;99.90;;;;;;4996422;28;20022;-82
2022/04/06 10:44:05;;;;;;;4.03;1.42;;;9.80;99.90;;;;;;5014524;28;20068;-83
2022/04/06 10:46:34;;;;;;;2.40;1.45;;;9.80;99.90;;;;;;4992227;28;20509;-83
2022/04/06 10:49:14;;;;;;;4.40;1.67;;;9.70;99.90;;;;;;5004782;28;20037;-81
2022/04/06 10:51:43;;;;;;;7.35;2.30;;;9.70;99.90;;;;;;4998846;28;20057;-84
2022/04/06 10:54:14;;;;;;;5.82;1.58;;;9.60;99.90;;;;;;4979065;28;20029;-83
2022/04/06 10:56:49;;;;;;;4.97;1.98;;;9.70;99.90;;;;;;5016189;28;20037;-85
2022/04/06 10:59:19;;;;;;;5.75;1.75;;;9.60;99.90;;;;;;5000243;28;20044;-83
2022/04/06 11:01:48;;;;;;;6.65;1.70;;;9.60;99.90;;;;;;4981909;28;20040;-83
2022/04/06 11:04:22;;;;;;;2.57;1.27;;;9.60;99.90;;;;;;4993943;28;20482;-84
2022/04/06 11:06:49;;;;;;;4.22;1.65;;;9.70;99.90;;;;;;5013467;28;20038;-83
2022/04/06 11:12:20;;;;;;;6.15;1.92;;;9.70;99.90;;;;;;5016271;28;20120;-84
2022/04/06 11:15:09;;;;;;;5.20;2.08;;;9.70;99.90;;;;;;4968289;28;20128;-83
2022/04/06 11:17:44;;;;;;;5.35;1.63;;;9.70;99.90;;;;;;5019539;28;20139;-85
2022/04/06 11:20:31;;;;;;;6.05;1.50;;;9.60;99.90;;;;;;4998644;28;20091;-82
2022/04/06 11:22:58;;;;;;;2.95;1.70;;;9.70;99.90;;;;;;4981422;28;20048;-83
2022/04/06 11:25:29;;;;;;;5.38;1.75;;;9.60;99.90;;;;;;5012691;28;20022;-83
2022/04/06 11:28:05;;;;;;;3.80;1.73;;;9.70;99.90;;;;;;5013010;28;20022;-84
2022/04/06 11:30:34;;;;;;;4.38;1.35;;;9.80;99.90;;;;;;4984805;28;20042;-82
2022/04/06 11:33:01;;;;;;;4.38;1.40;;;9.80;99.90;;;;;;5017574;28;20032;-84
2022/04/06 11:35:28;;;;;;;4.63;1.23;;;9.80;99.90;;;;;;4992818;28;20037;-83
2022/04/06 11:37:56;;;;;;;4.22;1.30;;;9.80;99.90;;;;;;4995241;28;20029;-86
2022/04/06 11:40:24;;;;;;;3.70;1.58;;;9.90;99.90;;;;;;5014355;28;20033;-83
2022/04/06 11:43:09;;;;;;;5.65;1.35;;;9.90;99.90;;;;;;5014752;28;20033;-85
2022/04/06 11:45:40;;;;;;;3.78;1.15;;;9.90;99.90;;;;;;4995878;28;20379;-84
2022/04/06 11:48:07;;;;;;;4.70;1.65;;;10.00;99.90;;;;;;4964672;28;20044;-84
2022/04/06 11:50:35;;;;;;;6.20;1.08;;;10.10;99.90;;;;;;4979755;28;20037;-84
2022/04/06 11:53:02;;;;;;;3.10;1.60;;;10.10;99.90;;;;;;5006131;28;20050;-83
2022/04/06 11:55:42;;;;;;;3.35;0.90;;;10.00;99.90;;;;;;4996564;28;20032;-84
2022/04/06 11:58:08;;;;;;;3.67;1.10;;;10.00;99.90;;;;;;4994954;28;20064;-84
2022/04/06 12:00:35;;;;;;;3.00;1.00;;;10.10;99.90;;;;;;5001799;28;20030;-83
2022/04/06 12:03:02;;;;;;;3.22;1.00;;;10.10;99.90;;;;;;4992183;28;20037;-84
2022/04/06 12:05:28;;;;;;;3.58;1.00;;;10.10;99.90;;;;;;4991736;28;20430;-85
2022/04/06 12:08:15;;;;;;;4.18;1.25;;;10.10;99.90;;;;;;4992471;28;20091;-83
2022/04/06 12:10:56;;;;;;;3.58;0.90;;;10.20;99.90;;;;;;5012742;28;20042;-83
2022/04/06 12:13:24;;;;;;;5.63;1.02;;;10.30;99.90;;;;;;4995221;28;20483;-84
2022/04/06 12:15:50;;;;;;;7.35;1.63;;;10.20;99.90;;;;;;5002112;28;20466;-84
2022/04/06 12:18:18;;;;;;;2.38;0.98;;;10.20;99.90;;;;;;4994462;28;20026;-84
2022/04/06 12:20:44;;;;;;;5.60;1.90;;;10.20;99.90;;;;;;5005749;28;20055;-84
2022/04/06 12:23:09;;;;;;;4.05;1.20;;;10.00;99.90;;;;;;4989261;28;20165;-84
2022/04/06 12:25:36;;;;;;;5.22;1.33;;;10.00;99.90;;;;;;5005349;28;20092;-83
2022/04/06 12:28:28;;;;;;;3.17;0.82;;;10.00;99.90;;;;;;4972756;28;20049;-85
2022/04/06 12:31:02;;;;;;;3.60;1.02;;;10.10;99.90;;;;;;4986121;28;20050;-85
2022/04/06 12:33:48;;;;;;;2.92;0.90;;;10.10;99.90;;;;;;4988449;28;20364;-84
2022/04/06 12:36:14;;;;;;;3.90;1.02;;;10.20;99.90;;;;;;4988170;28;20034;-84
2022/04/06 12:38:41;;;;;;;5.05;1.20;;;10.30;99.90;;;;;;5001567;28;20545;-83
2022/04/06 12:41:12;;;;;;;6.68;1.42;;;10.40;99.90;;;;;;4988988;28;20042;-83
2022/04/06 12:43:45;;;;;;;2.72;1.00;;;10.40;99.90;;;;;;4991257;28;20038;-84
2022/04/06 12:46:11;;;;;;;4.00;1.20;;;10.40;99.90;;;;;;4991726;28;20724;-82
2022/04/06 12:48:37;;;;;;;5.32;1.23;;;10.60;99.90;;;;;;4990268;28;20534;-82
2022/04/06 12:51:21;;;;;;;4.85;0.93;;;10.70;99.90;;;;;;5006473;28;20129;-85
2022/04/06 12:53:49;;;;;;;3.17;0.77;;;10.70;99.90;;;;;;4995034;28;20037;-83
2022/04/06 12:56:15;;;;;;;2.53;0.60;;;10.80;99.90;;;;;;4977622;28;20046;-85
2022/04/06 12:58:41;;;;;;;5.65;1.15;;;10.90;99.90;;;;;;5009147;28;20038;-83
2022/04/06 13:01:10;;;;;;;2.85;1.20;;;10.90;99.90;;;;;;4994193;28;20049;-84
2022/04/06 13:03:36;;;;;;;5.28;1.15;;;10.80;99.90;;;;;;5010879;28;20375;-83